Time;durP1;ratioP1;P1;durP2;ratioP2;P2;SDS_P1;SDS_P2;PMS_P1;PMS_P2;Temp;Humidity;BMP_temperature;BMP_pressure;BME280_temperature;BME280_humidity;BME280_pressure;Samples;Min_cycle;Max_cycle;Signal;HPM_P1;HPM_P2
2021/12/11 00:02:06;;;;;;;27.13;16.13;;;;;;;1.19;95.22;100541.38;4861556;29;20049;-88
2021/12/11 00:04:37;;;;;;;34.83;18.30;;;;;;;1.16;95.05;100546.53;4877105;29;20093;-87
2021/12/11 00:07:07;;;;;;;31.75;18.30;;;;;;;1.16;95.33;100551.75;4878540;29;20064;-88
2021/12/11 00:10:14;;;;;;;30.95;17.92;;;;;;;1.17;95.22;100558.75;4861438;29;20064;-88
2021/12/11 00:12:54;;;;;;;27.30;17.10;;;;;;;1.09;94.74;100558.66;4822955;29;20066;-88
2021/12/11 00:15:27;;;;;;;29.05;17.05;;;;;;;1.08;94.67;100567.31;4858599;29;20042;-88
2021/12/11 00:18:21;;;;;;;33.70;18.75;;;;;;;1.02;95.18;100565.53;4863406;29;20057;-87
2021/12/11 00:20:56;;;;;;;26.75;17.20;;;;;;;0.95;94.82;100566.28;4857202;29;20110;-88
2021/12/11 00:23:31;;;;;;;34.20;17.00;;;;;;;0.93;94.41;100578.44;4874417;29;20040;-88
2021/12/11 00:25:57;;;;;;;34.55;20.83;;;;;;;0.92;94.92;100594.94;4876587;29;20072;-87
2021/12/11 00:28:23;;;;;;;35.42;19.77;;;;;;;0.90;94.71;100590.56;4878310;29;20033;-88
2021/12/11 00:30:48;;;;;;;41.20;18.55;;;;;;;0.88;94.71;100603.56;4876482;29;20852;-87
2021/12/11 00:33:22;;;;;;;39.58;19.50;;;;;;;0.87;95.55;100601.81;4860722;29;20455;-87
2021/12/11 00:35:50;;;;;;;35.88;19.98;;;;;;;0.85;95.27;100607.00;4876446;29;20045;-88
2021/12/11 00:38:23;;;;;;;36.85;19.45;;;;;;;0.81;95.32;100609.53;4861124;29;20029;-87
2021/12/11 00:40:51;;;;;;;33.03;20.05;;;;;;;0.77;95.22;100611.25;4876150;29;20132;-87
2021/12/11 00:43:21;;;;;;;36.88;21.67;;;;;;;0.78;95.46;100615.59;4845620;29;20033;-87
2021/12/11 00:45:48;;;;;;;36.17;18.80;;;;;;;0.74;94.81;100625.94;4876658;29;20186;-87
2021/12/11 00:48:19;;;;;;;34.60;20.00;;;;;;;0.70;94.93;100629.38;4845445;29;20043;-87
2021/12/11 00:50:49;;;;;;;38.88;18.98;;;;;;;0.62;94.20;100637.09;4876137;29;20041;-88
2021/12/11 00:53:36;;;;;;;36.50;21.10;;;;;;;0.55;94.55;100635.25;4876248;29;20155;-87
2021/12/11 00:56:08;;;;;;;33.67;19.33;;;;;;;0.49;94.30;100645.56;4876468;29;20543;-87
2021/12/11 00:58:37;;;;;;;36.30;18.60;;;;;;;0.40;94.25;100644.56;4860520;29;20029;-88
2021/12/11 01:01:06;;;;;;;30.35;18.73;;;;;;;0.37;94.18;100649.72;4871009;29;20453;-87
2021/12/11 01:03:35;;;;;;;32.08;19.33;;;;;;;0.31;94.15;100656.56;4876430;29;20037;-87
2021/12/11 01:06:07;;;;;;;34.95;18.75;;;;;;;0.24;94.06;100658.16;4857790;29;20037;-87
2021/12/11 01:08:40;;;;;;;31.27;19.42;;;;;;;0.13;93.93;100647.56;4852483;29;20092;-87
2021/12/11 01:11:22;;;;;;;31.38;18.48;;;;;;;0.13;93.88;100663.19;4843021;29;20370;-87
2021/12/11 01:14:05;;;;;;;29.75;17.75;;;;;;;0.13;93.79;100664.94;4843891;29;20037;-86
2021/12/11 01:16:31;;;;;;;33.65;19.42;;;;;;;0.11;93.81;100677.91;4876448;29;20040;-86
2021/12/11 01:18:59;;;;;;;32.70;19.90;;;;;;;0.05;94.03;100675.22;4876449;29;20388;-87
2021/12/11 01:26:35;;;;;;;32.45;17.25;;;;;;;-0.03;94.04;100695.00;4877405;29;20067;-87
2021/12/11 01:29:00;;;;;;;29.55;18.05;;;;;;;-0.02;94.02;100704.59;4865958;29;20362;-87
2021/12/11 01:31:27;;;;;;;33.28;18.10;;;;;;;-0.03;94.05;100718.44;4876001;29;20082;-87
2021/12/11 01:33:54;;;;;;;32.22;18.88;;;;;;;-0.07;93.88;100720.09;4845459;29;20083;-87
2021/12/11 01:36:21;;;;;;;28.60;18.08;;;;;;;-0.09;93.90;100723.53;4860775;29;20100;-87
2021/12/11 01:38:47;;;;;;;35.95;19.50;;;;;;;-0.10;94.08;100726.97;4860647;29;20040;-87
2021/12/11 01:41:18;;;;;;;31.15;18.02;;;;;;;-0.15;94.17;100734.69;4860524;29;20176;-86
2021/12/11 01:43:49;;;;;;;35.00;19.65;;;;;;;-0.16;94.03;100740.75;4877512;29;20136;-87
2021/12/11 01:46:18;;;;;;;29.30;18.25;;;;;;;-0.18;94.22;100749.38;4875146;29;20075;-87
2021/12/11 01:48:48;;;;;;;32.58;18.55;;;;;;;-0.21;94.36;100758.00;4875824;29;20025;-87
2021/12/11 01:51:24;;;;;;;32.35;19.85;;;;;;;-0.23;94.30;100760.56;4875839;29;20037;-86
2021/12/11 01:53:56;;;;;;;32.65;19.15;;;;;;;-0.25;93.78;100769.16;4857254;29;20110;-87
2021/12/11 01:56:25;;;;;;;30.52;19.23;;;;;;;-0.30;94.34;100770.81;4868230;29;20041;-87
2021/12/11 01:59:00;;;;;;;33.28;18.77;;;;;;;-0.34;94.42;100782.00;4876025;29;20057;-85
2021/12/11 02:01:37;;;;;;;33.97;19.85;;;;;;;-0.34;94.35;100785.50;4873773;29;20056;-87
2021/12/11 02:04:06;;;;;;;37.53;18.42;;;;;;;-0.36;94.30;100794.97;4883361;29;20029;-85
2021/12/11 02:06:36;;;;;;;28.20;17.77;;;;;;;-0.35;94.29;100801.06;4878985;29;20029;-86
2021/12/11 02:09:31;;;;;;;28.40;18.00;;;;;;;-0.31;94.59;100798.56;4880743;29;20182;-86
2021/12/11 02:12:05;;;;;;;35.80;19.48;;;;;;;-0.34;94.36;100800.22;4876098;29;20124;-86
2021/12/11 02:14:40;;;;;;;31.67;19.52;;;;;;;-0.38;94.79;100804.47;4878366;29;20064;-86
2021/12/11 02:17:16;;;;;;;29.75;17.42;;;;;;;-0.43;94.58;100801.75;4864032;29;20048;-86
2021/12/11 02:19:44;;;;;;;34.90;19.33;;;;;;;-0.38;93.95;100814.00;4861140;29;20052;-86
2021/12/11 02:22:14;;;;;;;34.35;19.20;;;;;;;-0.40;94.55;100823.50;4877965;29;20029;-86
2021/12/11 02:24:45;;;;;;;34.28;19.92;;;;;;;-0.43;95.15;100826.91;4878200;29;20052;-86
2021/12/11 02:27:21;;;;;;;37.00;19.33;;;;;;;-0.43;95.11;100821.69;4878404;29;20048;-86
2021/12/11 02:30:03;;;;;;;35.00;18.98;;;;;;;-0.41;95.21;100826.94;4891969;29;20040;-86
2021/12/11 02:32:39;;;;;;;29.92;19.08;;;;;;;-0.40;95.09;100841.69;4875636;29;20046;-86
2021/12/11 02:35:12;;;;;;;37.95;21.02;;;;;;;-0.42;95.53;100844.28;4877997;29;20049;-86
2021/12/11 02:37:50;;;;;;;35.10;21.02;;;;;;;-0.41;96.07;100845.16;4877856;29;20123;-86
2021/12/11 02:40:37;;;;;;;30.13;18.23;;;;;;;-0.38;95.74;100850.44;4878464;29;20068;-86
2021/12/11 02:43:10;;;;;;;35.72;20.35;;;;;;;-0.37;96.01;100853.09;4862868;29;20092;-86
2021/12/11 02:45:44;;;;;;;34.53;19.63;;;;;;;-0.34;96.03;100857.47;4879832;29;20478;-86
2021/12/11 02:48:18;;;;;;;31.48;20.38;;;;;;;-0.32;96.14;100847.94;4878365;29;20037;-86
2021/12/11 02:50:51;;;;;;;33.13;20.30;;;;;;;-0.27;96.39;100859.38;4863129;29;20061;-87
2021/12/11 02:53:24;;;;;;;31.92;20.45;;;;;;;-0.23;96.21;100867.25;4862686;29;20044;-86
2021/12/11 02:56:10;;;;;;;35.08;20.55;;;;;;;-0.17;96.47;100874.34;4862710;29;20059;-87
2021/12/11 02:58:42;;;;;;;30.63;20.73;;;;;;;-0.16;96.93;100872.63;4878162;29;20037;-87
2021/12/11 03:01:20;;;;;;;35.45;20.23;;;;;;;-0.12;96.70;100879.66;4877984;29;20041;-87
2021/12/11 03:03:52;;;;;;;29.83;18.25;;;;;;;-0.15;96.46;100880.44;4879368;29;20040;-86
2021/12/11 03:06:22;;;;;;;32.05;18.80;;;;;;;-0.17;96.58;100879.53;4863250;29;20040;-87
2021/12/11 03:08:50;;;;;;;35.90;19.92;;;;;;;-0.19;96.50;100876.03;4862682;29;20040;-87
2021/12/11 03:11:19;;;;;;;35.75;20.20;;;;;;;-0.15;96.12;100889.97;4862433;29;20075;-87
2021/12/11 03:13:50;;;;;;;34.78;18.98;;;;;;;-0.19;95.88;100886.44;4877715;29;20037;-87
2021/12/11 03:16:19;;;;;;;34.22;19.00;;;;;;;-0.22;95.79;100902.88;4876678;29;20052;-87
2021/12/11 03:18:45;;;;;;;29.77;18.35;;;;;;;-0.21;95.65;100901.13;4862157;29;20025;-87
2021/12/11 03:21:11;;;;;;;25.52;17.02;;;;;;;-0.22;95.63;100905.47;4877429;29;20029;-86
2021/12/11 03:23:36;;;;;;;29.00;17.90;;;;;;;-0.27;95.65;100898.41;4846844;29;20036;-87
2021/12/11 03:26:02;;;;;;;36.35;18.65;;;;;;;-0.23;95.55;100913.22;4877412;29;20044;-86
2021/12/11 03:28:28;;;;;;;33.38;17.73;;;;;;;-0.28;95.46;100907.91;4877248;29;20040;-86
2021/12/11 03:30:58;;;;;;;27.48;18.92;;;;;;;-0.28;95.83;100915.72;4861801;29;20041;-86
2021/12/11 03:33:31;;;;;;;28.85;17.55;;;;;;;-0.30;95.78;100920.00;4877072;29;20041;-87
2021/12/11 03:35:57;;;;;;;31.13;17.77;;;;;;;-0.32;95.77;100915.59;4877770;29;20037;-87
2021/12/11 03:38:24;;;;;;;27.17;16.95;;;;;;;-0.30;95.92;100921.72;4876572;29;20057;-86
2021/12/11 03:40:51;;;;;;;30.95;18.30;;;;;;;-0.30;95.81;100934.75;4876324;29;20113;-86
2021/12/11 03:43:22;;;;;;;31.05;18.58;;;;;;;-0.38;95.96;100916.34;4845549;29;20052;-86
2021/12/11 03:45:52;;;;;;;32.10;17.95;;;;;;;-0.31;95.89;100925.19;4876181;29;20064;-86
2021/12/11 03:48:26;;;;;;;32.25;18.55;;;;;;;-0.32;95.97;100931.22;4876098;29;20485;-87
2021/12/11 03:50:52;;;;;;;27.20;18.20;;;;;;;-0.32;96.10;100939.03;4876097;29;20132;-86
2021/12/11 03:53:18;;;;;;;29.27;17.83;;;;;;;-0.34;95.85;100936.41;4876115;29;20398;-87
2021/12/11 03:55:55;;;;;;;29.98;18.17;;;;;;;-0.32;96.41;100934.72;4860804;29;20093;-87
2021/12/11 03:58:21;;;;;;;27.55;17.63;;;;;;;-0.36;96.15;100927.69;4860770;29;20377;-86
2021/12/11 04:00:50;;;;;;;34.13;18.55;;;;;;;-0.33;96.35;100932.94;4865386;29;20158;-86
2021/12/11 04:03:20;;;;;;;26.17;17.50;;;;;;;-0.31;96.37;100933.00;4857467;29;20046;-86
2021/12/11 04:05:47;;;;;;;29.35;17.33;;;;;;;-0.30;96.49;100939.94;4857765;29;20161;-86
2021/12/11 04:08:17;;;;;;;29.80;18.73;;;;;;;-0.26;96.44;100944.41;4842366;29;20397;-86
2021/12/11 04:10:42;;;;;;;30.90;18.48;;;;;;;-0.24;96.76;100934.91;4842308;29;20037;-86
2021/12/11 04:13:09;;;;;;;26.80;17.10;;;;;;;-0.25;97.05;100938.34;4857558;29;20040;-87
2021/12/11 04:15:38;;;;;;;31.77;18.58;;;;;;;-0.18;97.24;100958.47;4842183;29;20052;-87
2021/12/11 04:18:05;;;;;;;27.90;17.67;;;;;;;-0.12;97.07;100955.16;4842016;29;20033;-86
2021/12/11 04:20:31;;;;;;;29.75;18.38;;;;;;;-0.10;97.27;100963.84;4842293;29;20073;-87
2021/12/11 04:22:57;;;;;;;28.45;16.65;;;;;;;-0.10;97.27;100969.97;4842107;29;20085;-87
2021/12/11 04:25:26;;;;;;;28.83;18.42;;;;;;;-0.05;97.17;100970.03;4827329;29;20050;-87
2021/12/11 04:27:54;;;;;;;32.78;18.90;;;;;;;-0.02;97.36;100976.22;4857198;29;20093;-87
2021/12/11 04:30:22;;;;;;;33.03;18.98;;;;;;;0.02;97.64;100986.69;4827164;29;20056;-87
2021/12/11 04:32:50;;;;;;;28.90;19.05;;;;;;;0.04;97.67;100979.78;4857289;29;20157;-87
2021/12/11 04:35:16;;;;;;;31.15;19.10;;;;;;;0.08;97.86;100976.44;4858990;29;20132;-86
2021/12/11 04:37:42;;;;;;;32.33;20.67;;;;;;;0.10;97.75;100983.44;4841940;29;20033;-86
2021/12/11 04:40:17;;;;;;;39.67;21.88;;;;;;;0.14;98.24;100987.84;4841985;29;20450;-86
2021/12/11 04:45:18;;;;;;;36.78;21.75;;;;;;;0.25;98.54;101001.13;4857543;29;20128;-85
2021/12/11 04:47:57;;;;;;;34.95;20.92;;;;;;;0.29;98.47;101004.66;4858657;29;20120;-85
2021/12/11 04:50:42;;;;;;;35.58;21.65;;;;;;;0.33;98.92;101003.91;4872456;29;20040;-84
2021/12/11 04:53:23;;;;;;;36.25;21.20;;;;;;;0.36;98.65;101006.56;4877102;29;20323;-85
2021/12/11 05:04:01;;;;;;;34.60;20.40;;;;;;;0.47;98.89;101015.53;4876457;29;20112;-85
2021/12/11 05:12:07;;;;;;;37.50;22.42;;;;;;;0.61;98.81;101034.03;4844680;29;20124;-85
2021/12/11 05:14:33;;;;;;;42.42;23.23;;;;;;;0.63;99.29;101029.75;4877314;29;20080;-85
2021/12/11 05:16:59;;;;;;;36.80;20.50;;;;;;;0.69;99.41;101042.03;4844772;29;20063;-86
2021/12/11 05:19:24;;;;;;;36.65;20.92;;;;;;;0.72;99.20;101048.19;4875950;29;20045;-85
2021/12/11 05:21:50;;;;;;;39.63;22.83;;;;;;;0.76;99.59;101059.56;4856845;29;20033;-85
2021/12/11 05:24:17;;;;;;;34.53;21.10;;;;;;;0.77;98.88;101045.69;4857066;29;20374;-86
2021/12/11 05:26:44;;;;;;;37.75;21.42;;;;;;;0.81;99.13;101040.56;4841677;29;20097;-85
2021/12/11 05:29:09;;;;;;;38.60;22.20;;;;;;;0.83;98.96;101044.06;4841906;29;20128;-85
2021/12/11 05:31:35;;;;;;;34.88;21.88;;;;;;;0.84;99.40;101048.47;4856972;29;20108;-85
2021/12/11 05:34:02;;;;;;;34.17;19.05;;;;;;;0.83;99.34;101051.03;4857132;29;20184;-85
2021/12/11 05:36:31;;;;;;;38.47;22.30;;;;;;;0.87;99.24;101052.84;4857891;29;20039;-85
2021/12/11 05:38:58;;;;;;;39.17;21.50;;;;;;;0.87;99.53;101050.25;4844205;29;20355;-85
2021/12/11 05:41:24;;;;;;;39.35;23.13;;;;;;;0.89;99.66;101050.25;4859873;29;20492;-86
2021/12/11 05:43:51;;;;;;;40.78;23.05;;;;;;;0.92;99.84;101052.97;4844836;29;20037;-86
2021/12/11 05:46:18;;;;;;;36.88;21.67;;;;;;;0.97;99.80;101061.75;4844571;29;20041;-85
2021/12/11 05:48:47;;;;;;;42.30;23.15;;;;;;;1.00;100.00;101075.72;4860885;29;20565;-85
2021/12/11 05:51:19;;;;;;;40.10;22.55;;;;;;;1.04;99.92;101071.47;4878148;29;20041;-85
2021/12/11 05:53:45;;;;;;;35.45;19.85;;;;;;;1.06;100.00;101074.97;4878258;29;20120;-86
2021/12/11 05:56:12;;;;;;;42.17;23.45;;;;;;;1.08;100.00;101078.50;4879913;29;20052;-86
2021/12/11 05:58:56;;;;;;;39.25;22.58;;;;;;;1.09;100.00;101069.84;4878391;29;20032;-85
2021/12/11 06:01:40;;;;;;;32.22;18.58;;;;;;;1.12;100.00;101074.22;4878347;29;20044;-86
2021/12/11 06:04:16;;;;;;;34.92;20.33;;;;;;;1.12;100.00;101075.09;4878488;29;20035;-85
2021/12/11 06:06:43;;;;;;;43.17;22.83;;;;;;;1.11;99.91;101075.94;4878260;29;20037;-86
2021/12/11 06:09:11;;;;;;;31.98;19.85;;;;;;;1.13;100.00;101078.59;4878306;29;20094;-86
2021/12/11 06:11:40;;;;;;;37.03;21.00;;;;;;;1.14;99.85;101082.94;4878247;29;20053;-85
2021/12/11 06:14:06;;;;;;;34.42;21.20;;;;;;;1.13;99.69;101089.91;4862468;29;20587;-86
2021/12/11 06:16:33;;;;;;;36.05;20.20;;;;;;;1.16;99.88;101086.47;4878059;29;20161;-86
2021/12/11 06:19:03;;;;;;;39.10;21.17;;;;;;;1.17;99.98;101096.94;4862764;29;20033;-86
2021/12/11 06:21:30;;;;;;;36.58;20.83;;;;;;;1.18;100.00;101096.09;4879022;29;20044;-86
2021/12/11 06:23:56;;;;;;;34.78;20.83;;;;;;;1.24;100.00;101100.56;4847342;29;20028;-86
2021/12/11 06:26:21;;;;;;;36.00;21.67;;;;;;;1.25;100.00;101100.59;4862310;29;20477;-86
2021/12/11 06:28:47;;;;;;;34.20;20.08;;;;;;;1.31;100.00;101101.53;4877736;29;20043;-86
2021/12/11 06:31:18;;;;;;;35.03;20.48;;;;;;;1.32;100.00;101101.59;4862659;29;20041;-86
2021/12/11 06:33:44;;;;;;;;;;;;;;;1.40;100.00;101110.44;4863315;29;20131;-86
2021/12/11 06:36:14;;;;;;;31.83;19.85;;;;;;;1.38;100.00;101106.91;4862457;29;19964;-86
2021/12/11 06:38:52;;;;;;;34.35;20.02;;;;;;;1.41;100.00;101114.84;4863956;29;20044;-86
2021/12/11 06:41:23;;;;;;;31.45;18.60;;;;;;;1.41;100.00;101112.22;4862032;29;20045;-86
2021/12/11 06:43:49;;;;;;;40.73;21.57;;;;;;;1.47;100.00;101119.28;4861482;29;20143;-86
2021/12/11 06:46:15;;;;;;;40.00;23.67;;;;;;;1.50;100.00;101122.81;4877681;29;20083;-86
2021/12/11 06:48:41;;;;;;;40.92;22.90;;;;;;;1.52;100.00;101128.06;4877688;29;20065;-86
2021/12/11 06:51:07;;;;;;;36.20;20.70;;;;;;;1.54;100.00;101129.00;4878172;29;20168;-86
2021/12/11 06:53:43;;;;;;;37.97;21.60;;;;;;;1.58;100.00;101135.16;4830614;29;20344;-86
2021/12/11 06:56:11;;;;;;;35.92;21.08;;;;;;;1.66;100.00;101149.25;4875923;29;20037;-86
2021/12/11 06:58:37;;;;;;;39.13;22.27;;;;;;;1.66;100.00;101144.03;4862562;29;20124;-86
2021/12/11 07:01:04;;;;;;;37.53;21.23;;;;;;;1.71;100.00;101150.22;4862283;29;20056;-86
2021/12/11 07:03:33;;;;;;;43.05;22.92;;;;;;;1.77;100.00;101149.44;4862389;29;20442;-86
2021/12/11 07:05:59;;;;;;;43.20;25.45;;;;;;;1.78;100.00;101151.19;4877470;29;20041;-86
2021/12/11 07:08:27;;;;;;;49.03;25.65;;;;;;;1.81;100.00;101161.72;4861961;29;20105;-86
2021/12/11 07:10:54;;;;;;;46.67;25.15;;;;;;;1.83;100.00;101163.50;4862146;29;20040;-86
2021/12/11 07:13:20;;;;;;;47.83;26.48;;;;;;;1.90;100.00;101165.38;4877006;29;20434;-86
2021/12/11 07:15:45;;;;;;;47.50;24.60;;;;;;;1.92;100.00;101161.03;4877357;29;20099;-85
2021/12/11 07:18:11;;;;;;;45.78;24.98;;;;;;;1.94;100.00;101167.19;4880766;29;20048;-87
2021/12/11 07:20:37;;;;;;;44.20;25.80;;;;;;;1.98;100.00;101175.06;4863038;29;20403;-87
2021/12/11 07:23:03;;;;;;;49.45;26.63;;;;;;;2.00;100.00;101176.84;4845686;29;20032;-86
2021/12/11 07:25:32;;;;;;;41.03;24.67;;;;;;;2.06;100.00;101176.97;4876152;29;20044;-86
2021/12/11 07:28:03;;;;;;;41.95;26.83;;;;;;;2.10;100.00;101180.50;4877495;29;20092;-86
2021/12/11 07:30:29;;;;;;;41.05;24.27;;;;;;;2.15;100.00;101190.22;4875831;29;20055;-86
2021/12/11 07:32:57;;;;;;;39.08;23.90;;;;;;;2.14;100.00;101179.72;4860568;29;20055;-86
2021/12/11 07:35:24;;;;;;;40.95;25.40;;;;;;;2.26;100.00;101192.13;4876508;29;20040;-86
2021/12/11 07:37:50;;;;;;;41.72;23.63;;;;;;;2.28;100.00;101179.97;4876092;29;20243;-87
2021/12/11 07:40:21;;;;;;;42.40;26.15;;;;;;;2.36;100.00;101194.06;4876323;29;20048;-86
2021/12/11 07:42:48;;;;;;;46.93;24.97;;;;;;;2.41;100.00;101196.75;4876515;29;20068;-86
2021/12/11 07:45:15;;;;;;;42.80;22.42;;;;;;;2.44;100.00;101195.06;4875605;29;20069;-85
2021/12/11 07:47:40;;;;;;;42.60;22.77;;;;;;;2.46;100.00;101202.94;4860850;29;20060;-87
2021/12/11 07:50:06;;;;;;;40.20;23.33;;;;;;;2.53;100.00;101210.91;4876165;29;20071;-87
2021/12/11 07:52:32;;;;;;;37.30;21.20;;;;;;;2.54;100.00;101215.25;4860380;29;20473;-87
2021/12/11 07:54:57;;;;;;;36.45;21.70;;;;;;;2.57;100.00;101211.81;4860705;29;20048;-86
2021/12/11 07:57:23;;;;;;;40.17;23.33;;;;;;;2.58;100.00;101217.09;4860104;29;20085;-86
2021/12/11 07:59:48;;;;;;;32.92;19.60;;;;;;;2.61;100.00;101221.50;4876212;29;20108;-87
2021/12/11 08:02:14;;;;;;;33.92;19.05;;;;;;;2.60;100.00;101211.91;4859334;29;20056;-81
2021/12/11 08:04:40;;;;;;;30.30;16.90;;;;;;;2.63;100.00;101214.56;4876564;29;20029;-81
2021/12/11 08:07:06;;;;;;;32.35;17.45;;;;;;;2.68;100.00;101220.75;4875327;29;20037;-81
2021/12/11 08:09:32;;;;;;;37.13;16.58;;;;;;;2.70;100.00;101226.00;4875286;29;20081;-81
2021/12/11 08:11:57;;;;;;;32.13;16.33;;;;;;;2.75;100.00;101232.19;4875533;29;20040;-81
2021/12/11 08:14:25;;;;;;;33.33;15.45;;;;;;;2.78;100.00;101229.63;4875564;29;20488;-81
2021/12/11 08:16:53;;;;;;;69.55;18.67;;;;;;;2.85;100.00;101243.69;4844278;29;20487;-81
2021/12/11 08:19:22;;;;;;;31.58;12.60;;;;;;;2.87;100.00;101240.22;4858351;29;20481;-81
2021/12/11 08:21:51;;;;;;;29.25;12.50;;;;;;;2.88;100.00;101244.59;4872576;29;20061;-81
2021/12/11 08:24:17;;;;;;;27.08;11.27;;;;;;;2.91;100.00;101268.19;4858770;29;20226;-82
2021/12/11 08:26:43;;;;;;;30.10;11.02;;;;;;;2.95;100.00;101274.38;4858575;29;20589;-82
2021/12/11 08:29:11;;;;;;;23.45;10.50;;;;;;;3.00;100.00;101285.78;4873801;29;20032;-82
2021/12/11 08:31:39;;;;;;;23.98;10.07;;;;;;;3.04;100.00;101289.31;4866277;29;20369;-82
2021/12/11 08:34:05;;;;;;;22.65;9.85;;;;;;;3.01;100.00;101287.53;4875759;29;20029;-82
2021/12/11 08:36:31;;;;;;;19.55;8.48;;;;;;;3.08;100.00;101291.13;4877294;29;20036;-82
2021/12/11 08:38:59;;;;;;;23.63;8.45;;;;;;;3.14;100.00;101293.84;4860561;29;20566;-82
2021/12/11 08:41:28;;;;;;;26.13;8.05;;;;;;;3.22;100.00;101307.94;4860660;29;20166;-82
2021/12/11 08:43:59;;;;;;;21.02;8.48;;;;;;;3.27;100.00;101308.03;4876098;29;20033;-83
2021/12/11 08:46:29;;;;;;;22.48;8.25;;;;;;;3.32;100.00;101307.22;4876251;29;20056;-83
2021/12/11 08:48:59;;;;;;;16.65;7.15;;;;;;;3.41;100.00;101323.06;4875553;29;20076;-83
2021/12/11 08:52:00;;;;;;;20.17;6.83;;;;;;;3.47;100.00;101317.03;4877345;29;20040;-82
2021/12/11 08:54:28;;;;;;;18.40;6.20;;;;;;;3.58;100.00;101338.13;4835579;29;20060;-83
2021/12/11 08:56:56;;;;;;;13.80;5.22;;;;;;;3.56;100.00;101327.66;4876804;29;20025;-83
2021/12/11 08:59:28;;;;;;;20.60;5.97;;;;;;;3.61;100.00;101332.94;4860415;29;20045;-83
2021/12/11 09:01:57;;;;;;;15.48;5.18;;;;;;;3.66;100.00;101344.41;4876210;29;20040;-82
2021/12/11 09:04:31;;;;;;;19.45;5.68;;;;;;;3.71;100.00;101352.28;4860626;29;20156;-82
2021/12/11 09:07:02;;;;;;;13.60;4.90;;;;;;;3.75;100.00;101356.72;4876076;29;20036;-83
2021/12/11 09:09:38;;;;;;;24.42;7.00;;;;;;;3.80;100.00;101361.16;4860244;29;20093;-83
2021/12/11 09:12:24;;;;;;;21.00;6.43;;;;;;;3.81;100.00;101372.53;4876796;29;20037;-82
2021/12/11 09:14:57;;;;;;;20.92;6.07;;;;;;;3.88;100.00;101376.97;4863250;29;20105;-83
2021/12/11 09:17:44;;;;;;;16.67;6.15;;;;;;;3.94;100.00;101390.19;4879814;29;20080;-83
2021/12/11 09:20:45;;;;;;;26.75;6.70;;;;;;;3.96;100.00;101403.31;4880251;29;20105;-83
2021/12/11 09:23:23;;;;;;;16.13;7.25;;;;;;;3.99;100.00;101405.97;4863338;29;20090;-83
2021/12/11 09:25:58;;;;;;;24.75;11.50;;;;;;;4.08;100.00;101420.09;4862490;29;20538;-83
2021/12/11 09:28:27;;;;;;;24.67;12.55;;;;;;;4.04;100.00;101415.66;4861226;29;20041;-84
2021/12/11 09:31:01;;;;;;;34.75;15.55;;;;;;;4.11;100.00;101427.13;4861065;29;20119;-82
2021/12/11 09:33:32;;;;;;;28.27;15.45;;;;;;;4.06;100.00;101424.44;4861351;29;20136;-83
2021/12/11 09:36:07;;;;;;;35.05;17.60;;;;;;;4.14;100.00;101435.03;4861180;29;20041;-83
2021/12/11 09:38:36;;;;;;;32.67;18.13;;;;;;;4.16;99.89;101442.91;4871420;29;20033;-83
2021/12/11 09:41:18;;;;;;;34.47;18.38;;;;;;;4.19;100.00;101441.22;4879693;29;20557;-83
2021/12/11 09:44:05;;;;;;;36.20;18.98;;;;;;;4.15;100.00;101454.25;4879631;29;20033;-83
2021/12/11 09:46:36;;;;;;;40.67;19.05;;;;;;;4.19;99.35;101459.56;4879472;29;20346;-83
2021/12/11 09:49:05;;;;;;;34.67;19.58;;;;;;;4.15;99.17;101468.22;4879084;29;20073;-83
2021/12/11 09:51:36;;;;;;;36.63;20.73;;;;;;;4.13;99.40;101462.09;4860728;29;20043;-83
2021/12/11 09:54:08;;;;;;;38.67;21.85;;;;;;;4.18;99.38;101470.91;4862053;29;20033;-83
2021/12/11 09:56:43;;;;;;;33.00;19.73;;;;;;;4.12;98.70;101459.44;4860734;29;20040;-83
2021/12/11 09:59:14;;;;;;;38.03;22.23;;;;;;;4.15;98.71;101477.84;4860880;29;20445;-83
2021/12/11 10:01:43;;;;;;;38.63;22.37;;;;;;;4.16;98.28;101480.50;4862513;29;20046;-83
2021/12/11 10:04:32;;;;;;;40.85;22.15;;;;;;;4.11;98.35;101474.31;4860645;29;20021;-84
2021/12/11 10:07:24;;;;;;;49.70;23.80;;;;;;;4.09;97.97;101476.88;4860425;29;20057;-83
2021/12/11 10:09:51;;;;;;;35.90;21.05;;;;;;;4.08;98.36;101485.63;4860122;29;20053;-83
2021/12/11 10:12:42;;;;;;;41.13;21.15;;;;;;;4.06;98.84;101483.84;4845038;29;20029;-83
2021/12/11 10:15:39;;;;;;;39.67;23.25;;;;;;;4.06;98.81;101489.97;4859630;29;20044;-83
2021/12/11 10:18:13;;;;;;;34.67;20.65;;;;;;;4.08;98.34;101503.97;4830432;29;20439;-83
2021/12/11 10:20:44;;;;;;;41.28;23.52;;;;;;;4.12;98.61;101509.25;4860630;29;20038;-83
2021/12/11 10:23:13;;;;;;;39.63;19.90;;;;;;;4.13;99.40;101513.63;4860133;29;20040;-83
2021/12/11 10:25:40;;;;;;;42.33;22.73;;;;;;;4.17;99.62;101512.81;4859813;29;20025;-83
2021/12/11 10:28:10;;;;;;;40.28;24.05;;;;;;;4.20;99.24;101523.34;4860210;29;20357;-83
2021/12/11 10:30:41;;;;;;;46.45;24.92;;;;;;;4.18;99.39;101518.09;4875768;29;20583;-83
2021/12/11 10:33:07;;;;;;;;;;;;;;;4.27;99.36;101531.31;4861770;29;20374;-83
2021/12/11 10:35:39;;;;;;;57.30;27.83;;;;;;;4.25;99.29;101522.59;4860190;29;20010;-83
2021/12/11 10:38:06;;;;;;;47.72;25.15;;;;;;;4.27;99.20;101522.59;4861256;29;20369;-83
2021/12/11 10:40:42;;;;;;;46.33;25.88;;;;;;;4.28;99.03;101516.50;4874446;29;20128;-83
2021/12/11 10:43:18;;;;;;;45.53;24.65;;;;;;;4.27;98.61;101522.59;4878723;29;20040;-83
2021/12/11 10:45:45;;;;;;;47.65;25.88;;;;;;;4.33;99.05;101530.56;4879829;29;20431;-83
2021/12/11 10:48:15;;;;;;;47.97;27.08;;;;;;;4.42;98.26;101543.78;4863141;29;20099;-83
2021/12/11 10:50:51;;;;;;;44.03;24.00;;;;;;;4.44;97.92;101546.44;4859628;29;20120;-83
2021/12/11 10:53:21;;;;;;;42.20;22.35;;;;;;;4.44;97.33;101547.31;4860965;29;20037;-83
2021/12/11 10:55:48;;;;;;;43.17;23.13;;;;;;;4.52;97.86;101547.41;4844670;29;20044;-83
2021/12/11 10:58:19;;;;;;;41.58;23.85;;;;;;;4.58;98.38;101554.53;4844403;29;20034;-83
2021/12/11 11:00:53;;;;;;;41.58;21.35;;;;;;;4.62;97.72;101545.81;4862088;29;20042;-83
2021/12/11 11:03:20;;;;;;;37.28;20.30;;;;;;;4.66;96.87;101558.13;4877640;29;20080;-83
2021/12/11 11:05:48;;;;;;;38.83;21.83;;;;;;;4.63;97.30;101556.34;4878077;29;20048;-84
2021/12/11 11:08:15;;;;;;;44.88;22.75;;;;;;;4.74;98.16;101567.84;4877784;29;20060;-84
2021/12/11 11:10:48;;;;;;;44.67;23.40;;;;;;;4.91;98.23;101572.44;4877762;29;20116;-83
2021/12/11 11:13:15;;;;;;;47.42;22.48;;;;;;;5.02;97.91;101567.31;4877730;29;20052;-84
2021/12/11 11:15:42;;;;;;;38.15;21.30;;;;;;;5.10;96.92;101578.81;4861921;29;20043;-84
2021/12/11 11:18:11;;;;;;;44.63;21.98;;;;;;;5.06;97.28;101580.50;4877674;29;20033;-84
2021/12/11 11:20:51;;;;;;;34.65;19.35;;;;;;;5.05;96.74;101588.41;4877438;29;20043;-84
2021/12/11 11:23:17;;;;;;;31.23;17.55;;;;;;;5.03;96.55;101588.34;4877299;29;20096;-84
2021/12/11 11:25:46;;;;;;;34.22;17.52;;;;;;;5.03;96.93;101588.34;4862050;29;20036;-84
2021/12/11 11:28:15;;;;;;;25.98;15.98;;;;;;;5.15;96.53;101598.16;4877444;29;20120;-84
2021/12/11 11:30:55;;;;;;;27.40;17.00;;;;;;;5.22;96.92;101600.00;4877528;29;20411;-84
2021/12/11 11:33:22;;;;;;;35.22;15.20;;;;;;;5.29;97.51;101600.91;4861206;29;20223;-84
2021/12/11 11:35:49;;;;;;;37.38;15.25;;;;;;;5.29;97.06;101604.44;4860950;29;20033;-84
2021/12/11 11:38:26;;;;;;;24.23;13.80;;;;;;;5.29;96.25;101598.28;4860181;29;20366;-84
2021/12/11 11:41:06;;;;;;;26.48;14.23;;;;;;;5.32;96.32;101604.47;4851972;29;20080;-84
2021/12/11 11:43:32;;;;;;;22.88;12.63;;;;;;;5.36;95.69;101597.50;4876732;29;20421;-85
2021/12/11 11:45:58;;;;;;;23.70;12.32;;;;;;;5.36;95.79;101605.38;4876646;29;20029;-85
2021/12/11 11:48:31;;;;;;;23.13;12.63;;;;;;;5.47;94.96;101621.28;4861288;29;20048;-85
2021/12/11 11:50:59;;;;;;;20.02;11.00;;;;;;;5.43;95.75;101609.84;4877006;29;20721;-85
2021/12/11 11:53:26;;;;;;;19.58;9.57;;;;;;;5.58;95.93;101625.78;4876286;29;20509;-86